createdAt,value
2018-05-31T00:00:45.191Z,21.10
2018-05-31T00:03:19.450Z,21.14
2018-05-31T00:05:47.656Z,21.13
2018-05-31T00:08:15.828Z,21.10
2018-05-31T00:10:50.012Z,21.09
2018-05-31T00:13:18.187Z,21.09
2018-05-31T00:15:46.361Z,21.09
2018-05-31T00:18:14.580Z,21.06
2018-05-31T00:20:49.554Z,20.98
2018-05-31T00:23:17.748Z,20.83
2018-05-31T00:25:45.970Z,20.78
2018-05-31T00:28:14.817Z,20.76
2018-05-31T00:30:43.002Z,20.76
2018-05-31T00:33:11.206Z,20.69
2018-05-31T00:35:39.680Z,20.64
2018-05-31T00:38:07.919Z,20.63
2018-05-31T00:40:36.154Z,20.67
2018-05-31T00:43:04.336Z,20.68
2018-05-31T00:45:35.890Z,20.68
2018-05-31T00:48:04.062Z,20.68
2018-05-31T00:50:32.264Z,20.69
2018-05-31T00:53:00.434Z,20.65
2018-05-31T00:55:40.471Z,20.62
2018-05-31T00:58:10.116Z,20.60
2018-05-31T01:00:42.148Z,20.55
2018-05-31T01:03:10.312Z,20.52
2018-05-31T01:05:38.465Z,20.50
2018-05-31T01:08:06.658Z,20.48
2018-05-31T01:10:34.830Z,20.47
2018-05-31T01:13:03.854Z,20.45
2018-05-31T01:15:32.040Z,20.45
2018-05-31T01:18:00.255Z,20.46
2018-05-31T01:20:31.860Z,20.47
2018-05-31T01:23:00.050Z,20.48
2018-05-31T01:25:28.242Z,20.46
2018-05-31T01:27:57.796Z,20.44
2018-05-31T01:30:25.974Z,20.41
2018-05-31T01:32:54.172Z,20.36
2018-05-31T01:35:22.346Z,20.31
2018-05-31T01:37:50.518Z,20.29
2018-05-31T01:40:19.304Z,20.29
2018-05-31T01:42:47.470Z,20.29
2018-05-31T01:45:22.877Z,20.31
2018-05-31T01:47:51.063Z,20.30
2018-05-31T01:50:19.224Z,20.27
2018-05-31T01:52:53.475Z,20.25
2018-05-31T01:55:23.994Z,20.21
2018-05-31T01:57:52.179Z,20.20
2018-05-31T02:00:22.740Z,20.14
2018-05-31T02:02:50.947Z,20.10
2018-05-31T02:08:19.241Z,20.10
2018-05-31T02:10:50.165Z,20.09
2018-05-31T02:13:18.426Z,20.06
2018-05-31T02:15:46.788Z,20.01
2018-05-31T02:18:23.057Z,19.95
2018-05-31T02:20:51.371Z,19.92
2018-05-31T02:23:19.818Z,19.89
2018-05-31T02:25:51.121Z,19.88
2018-05-31T02:28:20.992Z,19.85
2018-05-31T02:30:51.147Z,19.80
2018-05-31T02:33:23.568Z,19.72
2018-05-31T02:35:51.842Z,19.68
2018-05-31T02:38:24.919Z,19.63
2018-05-31T02:40:55.798Z,19.56
2018-05-31T02:43:24.102Z,19.50
2018-05-31T02:45:54.186Z,19.47
2018-05-31T02:48:25.052Z,19.43
2018-05-31T02:50:55.423Z,19.40
2018-05-31T02:53:28.018Z,19.40
2018-05-31T02:55:57.956Z,19.40
2018-05-31T02:58:26.365Z,19.36
2018-05-31T03:00:55.656Z,19.30
2018-05-31T03:03:23.958Z,19.20
2018-05-31T03:05:52.316Z,19.11
2018-05-31T03:08:25.009Z,19.05
2018-05-31T03:10:54.066Z,19.01
2018-05-31T03:13:24.091Z,19.00
2018-05-31T03:15:54.133Z,18.97
2018-05-31T03:18:22.416Z,18.96
2018-05-31T03:20:50.698Z,18.99
2018-05-31T03:23:30.499Z,19.01
2018-05-31T03:26:07.503Z,19.02
2018-05-31T03:28:39.525Z,19.07
2018-05-31T03:31:08.526Z,19.12
2018-05-31T03:33:36.812Z,19.10
2018-05-31T03:36:05.745Z,19.08
2018-05-31T03:38:34.011Z,19.05
2018-05-31T03:54:05.017Z,18.75
2018-05-31T03:56:34.042Z,18.71
2018-05-31T03:59:03.083Z,18.70
2018-05-31T04:01:31.405Z,18.72
2018-05-31T04:04:00.414Z,18.75
2018-05-31T04:06:31.859Z,18.77
2018-05-31T04:09:00.215Z,18.77
2018-05-31T04:11:32.141Z,18.76
2018-05-31T04:14:02.240Z,18.76
2018-05-31T04:16:40.687Z,18.75
2018-05-31T04:19:14.001Z,18.75
2018-05-31T04:21:45.412Z,18.73
2018-05-31T04:24:17.643Z,18.74
2018-05-31T04:26:46.689Z,18.72
2018-05-31T04:29:16.813Z,18.73
2018-05-31T04:31:45.068Z,18.73
2018-05-31T04:34:13.381Z,18.75
2018-05-31T04:39:15.320Z,18.79
2018-05-31T04:41:43.607Z,18.83
2018-05-31T04:44:12.611Z,18.89
2018-05-31T04:46:40.909Z,18.93
2018-05-31T04:49:11.807Z,18.97
2018-05-31T04:51:40.113Z,19.00
2018-05-31T04:54:22.953Z,19.03
2018-05-31T04:56:53.007Z,19.05
2018-05-31T04:59:21.263Z,19.12
2018-05-31T05:01:52.278Z,19.19
2018-05-31T05:04:22.451Z,19.20
2018-05-31T05:06:53.456Z,19.16
2018-05-31T05:09:24.411Z,19.17
2018-05-31T05:11:53.425Z,19.24
2018-05-31T05:14:23.473Z,19.32
2018-05-31T05:16:51.767Z,19.40
2018-05-31T05:19:20.828Z,19.49
2018-05-31T05:21:49.857Z,19.47
2018-05-31T05:24:18.153Z,19.44
2018-05-31T05:26:48.065Z,19.55
2018-05-31T05:29:17.111Z,19.67
2018-05-31T05:31:47.097Z,19.77
2018-05-31T05:34:15.396Z,19.85
2018-05-31T05:36:44.452Z,19.92
2018-05-31T05:39:15.351Z,20.00
2018-05-31T05:41:48.339Z,20.08
2018-05-31T05:44:16.630Z,20.12
2018-05-31T05:46:55.411Z,20.20
2018-05-31T05:49:23.811Z,20.27
2018-05-31T05:51:53.779Z,20.33
2018-05-31T05:54:33.751Z,20.42
2018-05-31T05:57:02.137Z,20.49
2018-05-31T05:59:30.818Z,20.59
2018-05-31T06:02:00.825Z,20.62
2018-05-31T06:04:33.004Z,20.65
2018-05-31T06:07:10.813Z,20.69
2018-05-31T06:09:42.218Z,20.73
2018-05-31T06:12:27.898Z,20.80
2018-05-31T06:14:56.182Z,20.87
2018-05-31T06:17:29.136Z,20.94
2018-05-31T06:19:58.196Z,21.00
2018-05-31T06:22:29.698Z,21.10
2018-05-31T06:24:59.652Z,21.17
2018-05-31T06:27:27.948Z,21.20
2018-05-31T06:29:56.310Z,21.22
2018-05-31T06:32:25.261Z,21.27
2018-05-31T06:34:54.322Z,21.29
2018-05-31T06:37:23.265Z,21.32
2018-05-31T06:39:53.334Z,21.35
2018-05-31T06:42:21.664Z,21.41
2018-05-31T06:44:51.724Z,21.51
2018-05-31T06:47:22.619Z,21.63
2018-05-31T06:49:52.716Z,21.73
2018-05-31T06:52:22.731Z,21.76
2018-05-31T06:54:51.806Z,21.81
2018-05-31T06:57:27.964Z,21.80
2018-05-31T06:59:57.012Z,21.89
2018-05-31T07:02:34.282Z,21.95
2018-05-31T07:05:03.288Z,22.02
2018-05-31T07:07:31.554Z,22.09
2018-05-31T07:10:00.138Z,22.16
2018-05-31T07:12:28.821Z,22.20
2018-05-31T07:14:57.853Z,22.28
2018-05-31T07:17:26.271Z,22.32
2018-05-31T07:19:59.364Z,22.36
2018-05-31T07:22:29.484Z,22.37
2018-05-31T07:24:58.522Z,22.44
2018-05-31T07:27:27.584Z,22.52
2018-05-31T07:29:55.890Z,22.49
2018-05-31T07:32:28.883Z,22.56
2018-05-31T07:34:57.187Z,22.63
2018-05-31T07:37:27.173Z,22.72
2018-05-31T07:39:56.232Z,22.78
2018-05-31T07:42:24.488Z,22.82
2018-05-31T07:44:52.791Z,22.92
2018-05-31T07:47:21.788Z,23.05
2018-05-31T07:49:50.112Z,23.02
2018-05-31T07:52:19.105Z,23.02
2018-05-31T07:54:47.416Z,23.12
2018-05-31T07:57:24.153Z,23.20
2018-05-31T07:59:59.622Z,23.27
2018-05-31T08:02:30.483Z,23.36
2018-05-31T08:05:00.572Z,23.37
2018-05-31T08:07:29.566Z,23.37
2018-05-31T08:10:05.353Z,23.35
2018-05-31T08:12:36.264Z,23.42
2018-05-31T08:15:04.549Z,23.50
2018-05-31T08:17:32.982Z,23.59
2018-05-31T08:20:02.914Z,23.64
2018-05-31T08:22:33.013Z,23.70
2018-05-31T08:25:01.277Z,23.84
2018-05-31T08:27:29.571Z,23.92
2018-05-31T08:29:58.658Z,24.02
2018-05-31T08:32:27.507Z,24.06
2018-05-31T08:35:08.528Z,24.12
2018-05-31T08:37:36.892Z,24.18
2018-05-31T08:40:05.180Z,24.18
2018-05-31T08:42:33.508Z,24.26
2018-05-31T08:45:03.520Z,24.31
2018-05-31T08:47:33.399Z,24.32
2018-05-31T08:50:01.689Z,24.36
2018-05-31T08:52:30.679Z,24.46
2018-05-31T08:54:59.005Z,24.49
2018-05-31T08:57:27.337Z,24.58
2018-05-31T08:59:56.383Z,24.57
2018-05-31T09:02:31.031Z,24.56
2018-05-31T09:04:59.312Z,24.57
2018-05-31T09:07:27.620Z,24.65
2018-05-31T09:09:58.191Z,24.79
2018-05-31T09:12:26.530Z,24.94
2018-05-31T09:14:54.839Z,25.07
2018-05-31T09:17:23.181Z,25.19
2018-05-31T09:19:52.929Z,25.24
2018-05-31T09:22:23.024Z,25.33
2018-05-31T09:24:52.311Z,25.40
2018-05-31T09:27:24.209Z,25.53
2018-05-31T09:29:55.087Z,25.63
2018-05-31T09:32:25.813Z,25.70
2018-05-31T09:34:54.149Z,25.79
2018-05-31T09:37:30.427Z,25.82
2018-05-31T09:39:59.415Z,25.97
2018-05-31T09:42:27.743Z,26.07
2018-05-31T09:44:56.845Z,26.10
2018-05-31T09:47:25.910Z,26.09
2018-05-31T09:49:55.004Z,26.19
2018-05-31T09:52:23.305Z,26.24
2018-05-31T09:54:57.546Z,26.27
2018-05-31T09:57:26.712Z,26.24
2018-05-31T09:59:55.007Z,26.24
2018-05-31T10:02:26.128Z,26.29
2018-05-31T10:04:56.090Z,26.42
2018-05-31T10:07:25.135Z,26.54
2018-05-31T10:09:54.075Z,26.69
2018-05-31T10:12:25.256Z,26.73
2018-05-31T10:14:53.569Z,26.84
2018-05-31T10:17:23.508Z,26.90
2018-05-31T10:19:53.456Z,26.98
2018-05-31T10:22:22.359Z,27.04
2018-05-31T10:24:51.389Z,27.18
2018-05-31T10:27:20.088Z,27.16
2018-05-31T10:29:50.030Z,27.16
2018-05-31T10:32:20.022Z,27.18
2018-05-31T10:34:50.228Z,27.24
2018-05-31T10:37:20.291Z,27.28
2018-05-31T10:39:56.190Z,27.19
2018-05-31T10:42:26.185Z,27.26
2018-05-31T10:44:55.247Z,27.38
2018-05-31T10:47:30.154Z,27.48
2018-05-31T10:49:59.807Z,27.62
2018-05-31T10:52:30.607Z,27.66
2018-05-31T10:54:58.930Z,27.73
2018-05-31T11:10:28.911Z,27.93
2018-05-31T11:12:58.895Z,27.87
2018-05-31T11:15:29.869Z,27.82
2018-05-31T11:17:59.842Z,27.96
2018-05-31T11:20:29.963Z,28.12
2018-05-31T11:22:58.985Z,28.34
2018-05-31T11:25:27.368Z,28.39
2018-05-31T11:27:55.750Z,28.42
2018-05-31T11:30:26.336Z,28.50
2018-05-31T11:32:54.622Z,28.50
2018-05-31T11:35:23.808Z,28.37
2018-05-31T11:37:53.873Z,28.20
2018-05-31T11:40:24.790Z,27.99
2018-05-31T11:42:53.122Z,27.96
2018-05-31T11:45:21.422Z,27.96
2018-05-31T11:47:49.800Z,27.86
2018-05-31T11:50:18.128Z,27.86
2018-05-31T11:52:49.265Z,27.91
2018-05-31T11:55:21.338Z,28.14
2018-05-31T11:57:50.487Z,28.28
2018-05-31T12:00:18.767Z,28.49
2018-05-31T12:02:48.710Z,28.52
2018-05-31T12:05:25.629Z,28.48
2018-05-31T12:07:56.320Z,28.35
2018-05-31T12:10:24.638Z,28.27
2018-05-31T12:12:53.480Z,28.18
2018-05-31T12:15:23.564Z,28.27
2018-05-31T12:17:51.839Z,28.28
2018-05-31T12:20:20.932Z,28.48
2018-05-31T12:22:49.566Z,28.76
2018-05-31T12:25:19.607Z,28.94
2018-05-31T12:27:48.955Z,29.10
2018-05-31T12:30:24.914Z,29.08
2018-05-31T12:32:54.940Z,29.25
2018-05-31T12:35:24.861Z,29.36
2018-05-31T12:37:53.914Z,29.48
2018-05-31T12:40:23.991Z,29.65
2018-05-31T12:42:54.014Z,29.78
2018-05-31T12:45:23.914Z,29.95
2018-05-31T12:47:54.838Z,30.11
2018-05-31T12:50:23.219Z,30.24
2018-05-31T12:52:51.489Z,30.32
2018-05-31T12:55:24.560Z,30.34
2018-05-31T12:57:53.579Z,30.20
2018-05-31T13:12:39.831Z,30.87
2018-05-31T13:15:08.128Z,30.90
2018-05-31T13:17:36.435Z,30.93
2018-05-31T13:20:05.402Z,30.81
2018-05-31T13:22:35.525Z,30.99
2018-05-31T13:25:04.526Z,31.18
2018-05-31T13:27:33.565Z,30.99
2018-05-31T13:30:04.922Z,30.71
2018-05-31T13:32:33.929Z,30.48
2018-05-31T13:35:04.043Z,30.25
2018-05-31T13:37:33.059Z,30.10
2018-05-31T13:40:01.838Z,30.02
2018-05-31T13:42:30.605Z,29.77
2018-05-31T13:45:00.749Z,29.71
2018-05-31T13:57:14.084Z,31.83
2018-05-31T13:59:44.028Z,31.51
2018-05-31T14:02:14.890Z,31.20
2018-05-31T14:04:43.404Z,30.98
2018-05-31T14:07:11.734Z,30.85
2018-05-31T14:09:41.837Z,30.66
2018-05-31T14:12:10.198Z,30.51
2018-05-31T14:14:38.687Z,30.45
2018-05-31T14:17:09.608Z,30.40
2018-05-31T14:19:38.014Z,30.78
2018-05-31T14:22:07.006Z,30.74
2018-05-31T14:24:40.176Z,30.63
2018-05-31T14:27:19.063Z,30.43
2018-05-31T14:29:47.434Z,30.37
2018-05-31T14:34:53.982Z,30.09
2018-05-31T14:37:23.395Z,29.91
2018-05-31T14:39:51.564Z,29.86
2018-05-31T14:42:21.926Z,29.76
2018-05-31T14:44:50.081Z,29.64
2018-05-31T14:47:18.261Z,29.67
2018-05-31T14:49:46.422Z,29.73
2018-05-31T14:52:22.728Z,29.89
2018-05-31T14:54:50.892Z,30.04
2018-05-31T14:57:19.081Z,30.18
2018-05-31T14:59:49.132Z,30.20
2018-05-31T15:02:23.625Z,30.25
2018-05-31T15:04:51.789Z,30.43
2018-05-31T15:07:19.980Z,30.33
2018-05-31T15:09:48.142Z,30.27
2018-05-31T15:12:16.306Z,30.25
2018-05-31T15:14:44.756Z,30.16
2018-05-31T15:17:14.544Z,30.08
2018-05-31T15:19:42.747Z,29.95
2018-05-31T15:22:10.892Z,29.83
2018-05-31T15:24:39.049Z,29.64
2018-05-31T15:27:07.211Z,29.43
2018-05-31T15:29:35.465Z,29.34
2018-05-31T15:32:03.645Z,29.23
2018-05-31T15:34:31.790Z,29.14
2018-05-31T15:36:59.993Z,29.00
2018-05-31T15:39:28.175Z,28.87
2018-05-31T15:41:56.332Z,28.80
2018-05-31T15:44:24.494Z,28.72
2018-05-31T15:46:52.660Z,28.66
2018-05-31T15:49:20.821Z,28.58
2018-05-31T15:51:49.016Z,28.47
2018-05-31T15:54:17.978Z,28.34
2018-05-31T15:56:46.144Z,28.30
2018-05-31T15:59:14.324Z,28.27
2018-05-31T16:01:42.481Z,28.22
2018-05-31T16:04:10.701Z,28.11
2018-05-31T16:06:38.868Z,28.07
2018-05-31T16:09:07.033Z,28.00
2018-05-31T16:11:35.222Z,27.91
2018-05-31T16:14:03.401Z,27.85
2018-05-31T16:16:31.572Z,27.74
2018-05-31T16:18:59.736Z,27.64
2018-05-31T16:21:27.890Z,27.59
2018-05-31T16:23:56.105Z,27.51
2018-05-31T16:26:24.292Z,27.49
2018-05-31T16:28:52.514Z,27.30
2018-05-31T16:31:21.441Z,27.10
2018-05-31T16:33:49.622Z,26.96
2018-05-31T16:36:17.893Z,26.92
2018-05-31T16:38:47.101Z,26.85
2018-05-31T16:41:18.952Z,26.76
2018-05-31T16:43:47.120Z,26.58
2018-05-31T16:46:15.741Z,26.43
2018-05-31T16:48:43.895Z,26.33
2018-05-31T16:51:12.084Z,26.25
2018-05-31T16:53:40.735Z,26.20
2018-05-31T16:56:08.997Z,26.12
2018-05-31T16:58:38.155Z,26.04
2018-05-31T17:01:06.327Z,26.00
2018-05-31T17:03:34.500Z,25.94
2018-05-31T17:06:04.317Z,25.83
2018-05-31T17:08:32.476Z,25.84
2018-05-31T17:11:00.679Z,25.84
2018-05-31T17:13:28.857Z,25.80
2018-05-31T17:15:57.055Z,25.67
2018-05-31T17:18:25.260Z,25.54
2018-05-31T17:20:53.449Z,25.22
2018-05-31T17:23:21.608Z,24.04
2018-05-31T17:25:49.808Z,23.23
2018-05-31T17:28:19.800Z,22.66
2018-05-31T17:30:47.982Z,22.20
2018-05-31T17:33:16.156Z,21.92
2018-05-31T17:35:44.345Z,21.78
2018-05-31T17:38:12.516Z,21.66
2018-05-31T17:40:40.679Z,21.68
2018-05-31T17:43:08.881Z,21.68
2018-05-31T17:45:37.054Z,21.75
2018-05-31T17:48:05.787Z,21.81
2018-05-31T17:50:33.951Z,21.88
2018-05-31T17:53:02.119Z,21.93
2018-05-31T17:55:30.271Z,21.91
2018-05-31T17:57:58.416Z,21.91
2018-05-31T18:00:26.593Z,21.92
2018-05-31T18:02:54.742Z,21.91
2018-05-31T18:05:22.940Z,21.95
2018-05-31T18:07:51.174Z,21.98
2018-05-31T18:10:19.355Z,22.07
2018-05-31T18:12:47.531Z,22.14
2018-05-31T18:15:19.164Z,22.11
2018-05-31T18:17:47.366Z,22.06
2018-05-31T18:20:15.514Z,22.00
2018-05-31T18:22:44.535Z,21.90
2018-05-31T18:25:12.692Z,21.85
2018-05-31T18:27:40.874Z,21.82
2018-05-31T18:30:09.060Z,21.77
2018-05-31T18:32:37.231Z,21.74
2018-05-31T18:35:05.391Z,21.75
2018-05-31T18:37:33.569Z,21.71
2018-05-31T18:40:01.774Z,21.67
2018-05-31T18:42:29.986Z,21.69
2018-05-31T18:44:58.277Z,21.65
2018-05-31T18:47:26.456Z,21.56
2018-05-31T18:49:55.501Z,21.34
2018-05-31T18:52:23.665Z,21.31
2018-05-31T18:54:52.163Z,21.29
2018-05-31T18:57:20.336Z,21.29
2018-05-31T18:59:48.494Z,21.26
2018-05-31T19:02:31.009Z,21.29
2018-05-31T19:04:59.215Z,21.26
2018-05-31T19:07:27.367Z,21.26
2018-05-31T19:09:55.547Z,21.24
2018-05-31T19:12:32.609Z,21.18
2018-05-31T19:15:00.754Z,21.13
2018-05-31T19:17:28.942Z,21.10
2018-05-31T19:19:57.109Z,21.04
2018-05-31T19:22:25.284Z,20.98
2018-05-31T19:24:58.980Z,20.96
2018-05-31T19:27:27.157Z,20.68
2018-05-31T19:30:01.173Z,20.65
2018-05-31T19:32:29.518Z,20.60
2018-05-31T19:34:57.655Z,20.61
2018-05-31T19:37:25.854Z,20.64
2018-05-31T19:39:54.242Z,20.64
2018-05-31T19:42:27.888Z,20.51
2018-05-31T19:44:56.090Z,20.44
2018-05-31T19:47:24.256Z,20.46
2018-05-31T19:49:52.454Z,20.53
2018-05-31T19:52:26.092Z,20.50
2018-05-31T19:54:55.430Z,20.58
2018-05-31T19:57:24.321Z,20.62
2018-05-31T19:59:58.103Z,20.66
2018-05-31T20:02:31.981Z,20.68
2018-05-31T20:05:00.164Z,20.70
2018-05-31T20:07:28.417Z,20.72
2018-05-31T20:09:56.565Z,20.67
2018-05-31T20:12:24.711Z,20.68
2018-05-31T20:14:53.237Z,20.65
2018-05-31T20:17:21.423Z,20.66
2018-05-31T20:19:49.617Z,20.65
2018-05-31T20:22:17.809Z,20.65
2018-05-31T20:25:01.832Z,20.64
2018-05-31T20:27:30.012Z,20.62
2018-05-31T20:29:58.205Z,20.59
2018-05-31T20:32:26.462Z,20.52
2018-05-31T20:34:54.586Z,20.46
2018-05-31T20:37:22.778Z,20.40
2018-05-31T20:39:50.974Z,20.33
2018-05-31T20:42:19.137Z,20.31
2018-05-31T20:44:47.342Z,20.21
2018-05-31T20:47:15.507Z,20.13
2018-05-31T20:49:43.718Z,20.11
2018-05-31T20:52:13.971Z,20.08
2018-05-31T20:54:42.277Z,20.04
2018-05-31T20:57:10.448Z,20.05
2018-05-31T20:59:38.617Z,19.96
2018-05-31T21:02:06.829Z,19.89
2018-05-31T21:04:34.968Z,19.92
2018-05-31T21:07:03.185Z,19.98
2018-05-31T21:09:31.358Z,20.05
2018-05-31T21:11:59.574Z,20.04
2018-05-31T21:14:27.736Z,20.08
2018-05-31T21:16:55.916Z,20.09
2018-05-31T21:21:57.853Z,19.90
2018-05-31T21:24:26.035Z,19.88
2018-05-31T21:26:54.200Z,19.90
2018-05-31T21:29:22.397Z,19.91
2018-05-31T21:31:50.528Z,19.88
2018-05-31T21:34:18.714Z,19.86
2018-05-31T21:36:46.920Z,19.81
2018-05-31T21:39:15.115Z,19.75
2018-05-31T21:41:43.296Z,19.72
2018-05-31T21:44:11.493Z,19.71
2018-05-31T21:46:39.657Z,19.70
2018-05-31T21:49:09.014Z,19.71
2018-05-31T21:51:37.186Z,19.78
2018-05-31T21:54:05.389Z,19.78
2018-05-31T21:56:33.559Z,19.81
2018-05-31T21:59:01.756Z,19.82
2018-05-31T22:01:29.936Z,19.78
2018-05-31T22:03:58.130Z,19.73
2018-05-31T22:06:26.336Z,19.69
2018-05-31T22:08:54.492Z,19.74
2018-05-31T22:11:22.668Z,19.79
2018-05-31T22:13:50.850Z,19.80
2018-05-31T22:16:20.674Z,19.76
2018-05-31T22:18:48.839Z,19.76
2018-05-31T22:21:17.009Z,19.73
2018-05-31T22:23:45.195Z,19.67
2018-05-31T22:26:14.192Z,19.65
2018-05-31T22:28:42.362Z,19.63
2018-05-31T22:31:10.528Z,19.63
2018-05-31T22:33:38.702Z,19.65
2018-05-31T22:36:06.886Z,19.62
2018-05-31T22:38:35.060Z,19.60
2018-05-31T22:41:03.222Z,19.59
2018-05-31T22:43:31.383Z,19.61
2018-05-31T22:45:59.625Z,19.64
2018-05-31T22:48:27.920Z,19.66
2018-05-31T22:50:56.107Z,19.65
2018-05-31T22:53:24.278Z,19.63
2018-05-31T22:55:55.383Z,19.61
2018-05-31T22:58:23.571Z,19.55
2018-05-31T23:00:51.760Z,19.51
2018-05-31T23:03:19.954Z,19.51
2018-05-31T23:05:48.135Z,19.53
2018-05-31T23:08:17.178Z,19.52
2018-05-31T23:10:45.331Z,19.52
2018-05-31T23:13:13.487Z,19.47
2018-05-31T23:15:41.645Z,19.41
2018-05-31T23:18:09.824Z,19.34
2018-05-31T23:20:37.975Z,19.31
2018-05-31T23:23:06.136Z,19.30
2018-05-31T23:25:34.323Z,19.26
2018-05-31T23:28:02.520Z,19.25
2018-05-31T23:30:30.704Z,19.20
2018-05-31T23:32:58.906Z,19.19
2018-05-31T23:35:27.273Z,19.22
2018-05-31T23:37:55.432Z,19.23
2018-05-31T23:40:23.637Z,19.20
2018-05-31T23:42:51.785Z,19.18
2018-05-31T23:45:21.028Z,19.18
2018-05-31T23:47:49.180Z,19.18
2018-05-31T23:50:17.395Z,19.13
2018-05-31T23:52:45.561Z,19.08
2018-05-31T23:55:13.757Z,19.02
2018-05-31T23:57:41.919Z,18.94
